Weather reports worldwide

Advertisment
Great Dun Fell, United Kingdom (3227): temperature & dewpoint: 13.11.2019 18:00:00 - 19.11.2019 18:00:00 (GMT)Great Dun Fell, United Kingdom (3227): wind speed & gusts: 13.11.2019 18:00:00 - 19.11.2019 18:00:00 (GMT)Great Dun Fell, United Kingdom (3227): wind direction: 13.11.2019 18:00:00 - 19.11.2019 18:00:00 (GMT)
Date & Time tt [°C] td [°C] ff [km/h] ff [kn] fx [km/h] fx [kn] dd
19.11.2019 18:00:00 1,0 - 41 22 52 28 S
19.11.2019 17:00:00 0,9 - 35 19 - - S
19.11.2019 16:00:00 0,6 - 31 17 - - S
19.11.2019 15:00:00 0,9 - 26 14 - - SSW
19.11.2019 14:00:00 0,7 - 21 11 - - S
19.11.2019 13:00:00 0,3 - 22 12 - - S
19.11.2019 12:00:00 0,0 - 16 9 - - S
19.11.2019 11:00:00 -1,1 -1,1 15 8 - - SW
19.11.2019 10:00:00 -2,4 -5,1 21 11 - - SSW
19.11.2019 09:00:00 -2,9 -5,4 22 12 - - S
19.11.2019 08:00:00 -2,6 -6,1 16 9 - - S
19.11.2019 07:00:00 -1,8 -6,9 11 6 - - S
19.11.2019 06:00:00 -2,8 -4,9 13 7 - - S
19.11.2019 05:00:00 -2,6 -4,8 9 5 - - SSW
19.11.2019 04:00:00 -2,5 -3,7 8 4 - - SSW
19.11.2019 03:00:00 -3,1 -5,3 5 3 - - SSW
19.11.2019 02:00:00 -3,0 -4,7 8 4 - - SW
19.11.2019 01:00:00 -3,0 -5,6 9 5 - - WSW
19.11.2019 00:00:00 -3,2 -5,1 9 5 - - WSW
18.11.2019 23:00:00 -3,4 -4,6 5 3 - - SW
18.11.2019 22:00:00 -3,9 -5,2 5 3 - - NE
18.11.2019 21:00:00 -3,6 -4,5 9 5 - - ENE
18.11.2019 20:00:00 -3,8 -4,7 8 4 - - ENE
18.11.2019 19:00:00 -3,8 -4,5 4 2 - - ENE
18.11.2019 18:00:00 -3,5 -3,8 8 4 - - NW
18.11.2019 17:00:00 -3,6 - 8 4 - - N
18.11.2019 16:00:00 -2,2 - 5 3 - - N
18.11.2019 15:00:00 -1,8 - 9 5 - - N
18.11.2019 14:00:00 -2,4 - 15 8 - - NNW
18.11.2019 13:00:00 -2,0 - 11 6 - - NNE
18.11.2019 12:00:00 -2,0 - 15 8 - - NE
18.11.2019 11:00:00 -1,8 - 11 6 - - NNE
18.11.2019 10:00:00 -1,9 -2,8 11 6 - - NNE
18.11.2019 09:00:00 -2,1 -2,6 16 9 - - NE
18.11.2019 08:00:00 -2,3 -2,7 21 11 - - NE
18.11.2019 07:00:00 -2,1 -2,8 16 9 - - NNE
18.11.2019 06:00:00 -2,2 -3,1 13 7 - - NNE
18.11.2019 05:00:00 -1,7 -3,8 22 12 - - NE
18.11.2019 04:00:00 -1,3 - 28 15 - - NE
18.11.2019 03:00:00 -1,0 - 26 14 - - NE
18.11.2019 02:00:00 -1,0 - 34 18 - - NE
18.11.2019 01:00:00 -1,1 - 29 16 - - NE
18.11.2019 00:00:00 -1,3 - 31 17 - - NE
17.11.2019 23:00:00 -0,8 - 26 14 - - NE
17.11.2019 22:00:00 -0,1 - 26 14 - - NE
17.11.2019 21:00:00 -0,2 - 16 9 - - NE
17.11.2019 20:00:00 0,1 - 22 12 - - NE
17.11.2019 19:00:00 0,5 - 26 14 - - NE
17.11.2019 18:00:00 0,7 - 31 17 - - ENE
17.11.2019 17:00:00 0,8 - 26 14 - - ENE
17.11.2019 16:00:00 0,9 - 24 13 - - NE
17.11.2019 15:00:00 1,0 - 31 17 - - NE
17.11.2019 14:00:00 0,8 - 39 21 - - NE
17.11.2019 13:00:00 1,1 - 37 20 - - NE
17.11.2019 12:00:00 0,9 - 37 20 - - ENE
17.11.2019 11:00:00 0,9 - 28 15 - - NE
17.11.2019 10:00:00 0,9 - 24 13 - - NE
17.11.2019 09:00:00 0,9 - 24 13 - - NE
17.11.2019 08:00:00 0,9 - 28 15 - - NE
17.11.2019 07:00:00 1,0 - 26 14 - - NE
17.11.2019 06:00:00 1,0 - 26 14 - - NE
17.11.2019 05:00:00 1,1 - 24 13 - - NE
17.11.2019 04:00:00 0,8 - 24 13 - - NE
17.11.2019 03:00:00 0,8 - 22 12 - - NE
17.11.2019 02:00:00 1,3 - 26 14 - - NE
17.11.2019 01:00:00 1,5 - 22 12 - - NE
17.11.2019 00:00:00 1,5 - 21 11 - - NE
16.11.2019 23:00:00 1,5 - 21 11 - - NE
16.11.2019 22:00:00 1,8 - 22 12 - - NE
16.11.2019 21:00:00 1,6 - 24 13 - - NE
16.11.2019 20:00:00 1,6 - 24 13 - - NE
16.11.2019 19:00:00 1,7 - 15 8 - - NNE
16.11.2019 18:00:00 2,1 - 18 10 - - NNE
16.11.2019 17:00:00 2,4 - 26 14 - - NE
16.11.2019 16:00:00 2,5 - 18 10 - - NNE
16.11.2019 15:00:00 2,5 - 18 10 - - NNE
16.11.2019 14:00:00 2,5 - 26 14 - - NE
16.11.2019 13:00:00 2,4 - 34 18 - - NE
16.11.2019 12:00:00 2,3 - 31 17 - - NE
16.11.2019 11:00:00 2,2 - 37 20 - - NE
16.11.2019 10:00:00 2,2 - 35 19 - - NE
16.11.2019 09:00:00 1,8 - 35 19 50 27 NE
16.11.2019 08:00:00 1,7 - 42 23 52 28 NE
16.11.2019 07:00:00 1,6 - 44 24 54 29 NE
16.11.2019 06:00:00 1,5 - 44 24 55 30 NE
16.11.2019 05:00:00 1,7 - 50 27 59 32 NE
16.11.2019 04:00:00 1,5 - 52 28 63 34 NE
16.11.2019 03:00:00 1,2 - 55 30 68 37 NE
16.11.2019 02:00:00 0,9 - 63 34 83 45 NE
16.11.2019 01:00:00 0,6 - 57 31 76 41 NE
16.11.2019 00:00:00 0,6 - 61 33 93 50 NE
15.11.2019 23:00:00 0,6 - 72 39 104 56 NE
15.11.2019 22:00:00 0,8 - 87 47 111 60 ENE
15.11.2019 21:00:00 0,6 - 93 50 107 58 ENE
15.11.2019 20:00:00 0,6 - 85 46 106 57 NE
15.11.2019 19:00:00 0,8 - 80 43 102 55 ENE
15.11.2019 18:00:00 0,6 - 87 47 102 55 ENE
15.11.2019 17:00:00 0,9 - 74 40 96 52 NE
15.11.2019 16:00:00 1,1 - 81 44 94 51 ENE
15.11.2019 15:00:00 1,4 - 68 37 91 49 ENE
15.11.2019 14:00:00 1,3 - 70 38 83 45 ENE
15.11.2019 13:00:00 1,5 - 70 38 83 45 ENE
15.11.2019 12:00:00 1,3 - 54 29 67 36 NE
15.11.2019 11:00:00 0,0 - 52 28 67 36 NE
15.11.2019 10:00:00 0,0 - 54 29 76 41 NE
15.11.2019 09:00:00 0,0 - 59 32 68 37 ENE
15.11.2019 08:00:00 0,0 - 54 29 78 42 NE
15.11.2019 07:00:00 0,0 0,0 55 30 72 39 NE
15.11.2019 06:00:00 -0,3 -0,9 63 34 93 50 NE
15.11.2019 05:00:00 0,0 0,0 68 37 85 46 NE
15.11.2019 04:00:00 0,0 0,0 70 38 96 52 NE
15.11.2019 03:00:00 -0,6 -1,1 76 41 87 47 NE
15.11.2019 02:00:00 -0,6 -1,0 70 38 85 46 NE
15.11.2019 01:00:00 -0,9 -1,2 42 23 91 49 NNE
15.11.2019 00:00:00 -1,0 -1,3 74 40 89 48 NE
14.11.2019 23:00:00 -1,2 -1,4 63 34 91 49 NE
14.11.2019 22:00:00 -1,2 -1,5 74 40 93 50 NE
14.11.2019 21:00:00 -1,1 -1,4 74 40 94 51 NE
14.11.2019 20:00:00 -1,1 -1,4 72 39 93 50 NE
14.11.2019 19:00:00 -1,0 -1,4 80 43 94 51 NE
14.11.2019 18:00:00 -1,0 -1,3 68 37 93 50 NE
14.11.2019 17:00:00 -0,9 -1,3 74 40 98 53 NE
14.11.2019 16:00:00 -0,9 -1,3 76 41 93 50 NE
14.11.2019 15:00:00 -0,9 -1,3 74 40 91 49 NE
14.11.2019 14:00:00 -1,2 -1,6 81 44 96 52 NE
14.11.2019 13:00:00 -1,3 -1,6 72 39 89 48 NE
14.11.2019 12:00:00 -1,2 -1,6 78 42 96 52 NE
14.11.2019 11:00:00 -1,4 -1,8 72 39 87 47 NE
14.11.2019 10:00:00 -1,8 -2,1 68 37 89 48 NE
14.11.2019 09:00:00 -1,9 -2,1 72 39 83 45 NE
14.11.2019 08:00:00 -1,6 -1,9 68 37 78 42 ENE
14.11.2019 07:00:00 -1,5 -1,8 65 35 74 40 ENE
14.11.2019 06:00:00 -1,5 -1,8 59 32 76 41 NE
14.11.2019 05:00:00 -1,5 -1,8 59 32 76 41 ENE
14.11.2019 04:00:00 -1,5 -1,8 67 36 74 40 ENE
14.11.2019 03:00:00 -1,5 -1,8 54 29 68 37 NE
14.11.2019 02:00:00 -1,4 -1,7 55 30 65 35 ENE
14.11.2019 01:00:00 -1,7 -2,0 57 31 65 35 ENE
14.11.2019 00:00:00 -1,5 -1,8 54 29 63 34 ENE
13.11.2019 23:00:00 -1,6 -1,8 48 26 55 30 ENE
13.11.2019 22:00:00 -1,7 -1,8 46 25 54 29 ENE
13.11.2019 21:00:00 -1,2 - 37 20 - - E
13.11.2019 20:00:00 -1,1 - 35 19 - - E
13.11.2019 19:00:00 -0,9 - 34 18 - - E
13.11.2019 18:00:00 -1,2 - 34 18 - - E

tt = temperature
td = dewpoint
ff = wind speed
fx = gusts
dd = wind direction

Next stations